sensor_id;sensor_type;location;lat;lon;timestamp;pressure;altitude;pressure_sealevel;temperature;humidity
48790;BME280;41718;51.980;5.734;2023-03-23T00:03:43;100145.97;;;10.42;100.00
48790;BME280;41718;51.980;5.734;2023-03-23T00:08:46;100146.81;;;10.39;100.00
48790;BME280;41718;51.980;5.734;2023-03-23T00:13:49;100136.47;;;10.33;100.00
48790;BME280;41718;51.980;5.734;2023-03-23T00:18:52;100136.47;;;10.39;100.00
48790;BME280;41718;51.980;5.734;2023-03-23T00:23:52;100146.88;;;10.51;100.00
48790;BME280;41718;51.980;5.734;2023-03-23T00:28:53;100138.25;;;10.52;100.00
48790;BME280;41718;51.980;5.734;2023-03-23T00:33:54;100150.28;;;10.49;100.00
48790;BME280;41718;51.980;5.734;2023-03-23T00:38:55;100156.28;;;10.43;100.00
48790;BME280;41718;51.980;5.734;2023-03-23T00:43:59;100161.50;;;10.45;100.00
48790;BME280;41718;51.980;5.734;2023-03-23T00:49:02;100163.19;;;10.38;100.00
48790;BME280;41718;51.980;5.734;2023-03-23T00:54:03;100139.94;;;10.40;100.00
48790;BME280;41718;51.980;5.734;2023-03-23T00:59:03;100081.31;;;10.40;100.00
48790;BME280;41718;51.980;5.734;2023-03-23T01:04:05;100058.03;;;10.34;100.00
48790;BME280;41718;51.980;5.734;2023-03-23T01:09:08;100064.06;;;10.33;100.00
48790;BME280;41718;51.980;5.734;2023-03-23T01:14:10;100064.91;;;10.37;100.00
48790;BME280;41718;51.980;5.734;2023-03-23T01:19:11;100061.50;;;10.41;100.00
48790;BME280;41718;51.980;5.734;2023-03-23T01:24:11;100074.44;;;10.48;100.00
48790;BME280;41718;51.980;5.734;2023-03-23T01:29:12;100035.66;;;10.47;100.00
48790;BME280;41718;51.980;5.734;2023-03-23T01:34:12;100016.69;;;10.48;100.00
48790;BME280;41718;51.980;5.734;2023-03-23T01:39:12;100021.88;;;10.60;100.00
48790;BME280;41718;51.980;5.734;2023-03-23T01:49:19;100004.63;;;10.59;100.00
48790;BME280;41718;51.980;5.734;2023-03-23T01:54:23;100002.91;;;10.46;100.00
48790;BME280;41718;51.980;5.734;2023-03-23T01:59:25;100008.94;;;10.52;100.00
48790;BME280;41718;51.980;5.734;2023-03-23T02:04:28;100006.38;;;10.55;100.00
48790;BME280;41718;51.980;5.734;2023-03-23T02:09:30;99984.78;;;10.49;100.00
48790;BME280;41718;51.980;5.734;2023-03-23T02:14:30;99989.97;;;10.58;100.00
48790;BME280;41718;51.980;5.734;2023-03-23T02:19:52;99980.50;;;10.58;100.00
48790;BME280;41718;51.980;5.734;2023-03-23T02:31:01;99964.13;;;10.67;100.00
48790;BME280;41718;51.980;5.734;2023-03-23T02:36:01;99971.88;;;10.79;100.00
48790;BME280;41718;51.980;5.734;2023-03-23T02:41:04;99980.50;;;10.74;100.00
48790;BME280;41718;51.980;5.734;2023-03-23T02:46:07;99977.94;;;10.78;100.00
48790;BME280;41718;51.980;5.734;2023-03-23T02:51:09;99980.47;;;10.94;100.00
48790;BME280;41718;51.980;5.734;2023-03-23T02:56:11;99971.03;;;10.90;100.00
48790;BME280;41718;51.980;5.734;2023-03-23T03:12:06;99971.88;;;10.76;100.00
48790;BME280;41718;51.980;5.734;2023-03-23T03:17:17;99963.25;;;10.80;100.00
48790;BME280;41718;51.980;5.734;2023-03-23T03:22:21;99969.28;;;10.79;100.00
48790;BME280;41718;51.980;5.734;2023-03-23T03:27:22;99964.13;;;10.73;100.00
48790;BME280;41718;51.980;5.734;2023-03-23T03:32:29;99979.66;;;10.78;100.00
48790;BME280;41718;51.980;5.734;2023-03-23T03:37:37;99968.41;;;10.86;100.00
48790;BME280;41718;51.980;5.734;2023-03-23T03:42:39;99977.91;;;10.81;100.00
48790;BME280;41718;51.980;5.734;2023-03-23T03:47:39;99969.28;;;10.81;100.00
48790;BME280;41718;51.980;5.734;2023-03-23T03:52:40;99971.03;;;10.83;100.00
48790;BME280;41718;51.980;5.734;2023-03-23T03:57:41;99958.94;;;10.85;100.00
48790;BME280;41718;51.980;5.734;2023-03-23T04:02:43;99959.78;;;11.01;100.00
48790;BME280;41718;51.980;5.734;2023-03-23T04:07:44;99968.44;;;10.96;100.00
48790;BME280;41718;51.980;5.734;2023-03-23T04:12:46;99953.75;;;10.88;100.00
48790;BME280;41718;51.980;5.734;2023-03-23T04:17:46;99949.44;;;10.86;100.00
48790;BME280;41718;51.980;5.734;2023-03-23T04:22:47;99951.16;;;10.95;100.00
48790;BME280;41718;51.980;5.734;2023-03-23T04:27:52;99952.84;;;11.19;100.00
48790;BME280;41718;51.980;5.734;2023-03-23T04:32:53;99957.16;;;11.20;100.00
48790;BME280;41718;51.980;5.734;2023-03-23T04:37:55;99965.81;;;11.05;100.00
48790;BME280;41718;51.980;5.734;2023-03-23T04:42:55;99977.91;;;11.12;100.00
48790;BME280;41718;51.980;5.734;2023-03-23T04:47:58;99994.28;;;11.03;100.00
48790;BME280;41718;51.980;5.734;2023-03-23T04:53:00;99985.69;;;11.01;100.00
48790;BME280;41718;51.980;5.734;2023-03-23T04:58:05;99991.69;;;11.03;100.00
48790;BME280;41718;51.980;5.734;2023-03-23T05:03:06;99978.78;;;11.06;100.00
48790;BME280;41718;51.980;5.734;2023-03-23T05:08:07;99981.34;;;10.94;100.00
48790;BME280;41718;51.980;5.734;2023-03-23T05:13:08;99993.44;;;10.84;100.00
48790;BME280;41718;51.980;5.734;2023-03-23T05:18:08;99997.75;;;11.01;100.00
48790;BME280;41718;51.980;5.734;2023-03-23T05:23:10;99998.59;;;10.92;100.00
48790;BME280;41718;51.980;5.734;2023-03-23T05:28:11;99986.50;;;11.00;100.00
48790;BME280;41718;51.980;5.734;2023-03-23T05:33:12;99995.16;;;10.85;100.00
48790;BME280;41718;51.980;5.734;2023-03-23T05:38:13;99984.81;;;10.84;100.00
48790;BME280;41718;51.980;5.734;2023-03-23T05:43:14;99989.97;;;10.82;100.00
48790;BME280;41718;51.980;5.734;2023-03-23T05:48:15;99999.47;;;10.80;100.00
48790;BME280;41718;51.980;5.734;2023-03-23T05:53:15;99999.47;;;10.85;100.00
48790;BME280;41718;51.980;5.734;2023-03-23T05:58:16;99998.59;;;10.83;100.00
48790;BME280;41718;51.980;5.734;2023-03-23T06:03:16;100001.19;;;10.86;100.00
48790;BME280;41718;51.980;5.734;2023-03-23T06:08:17;100011.53;;;11.06;100.00
48790;BME280;41718;51.980;5.734;2023-03-23T06:13:17;100007.22;;;11.03;100.00
48790;BME280;41718;51.980;5.734;2023-03-23T06:18:18;100005.50;;;11.04;100.00
48790;BME280;41718;51.980;5.734;2023-03-23T06:23:20;100013.25;;;11.14;100.00
48790;BME280;41718;51.980;5.734;2023-03-23T06:28:21;100019.31;;;11.12;100.00
48790;BME280;41718;51.980;5.734;2023-03-23T06:33:24;100033.09;;;11.00;100.00
48790;BME280;41718;51.980;5.734;2023-03-23T06:38:24;100033.13;;;11.06;100.00
48790;BME280;41718;51.980;5.734;2023-03-23T06:43:26;100043.47;;;11.02;100.00
48790;BME280;41718;51.980;5.734;2023-03-23T06:48:26;100058.97;;;11.00;100.00
48790;BME280;41718;51.980;5.734;2023-03-23T06:53:27;100066.75;;;11.02;100.00
48790;BME280;41718;51.980;5.734;2023-03-23T06:58:27;100054.69;;;11.02;100.00
48790;BME280;41718;51.980;5.734;2023-03-23T07:03:27;100053.84;;;11.06;100.00
48790;BME280;41718;51.980;5.734;2023-03-23T07:08:28;100075.38;;;11.04;100.00
48790;BME280;41718;51.980;5.734;2023-03-23T07:13:28;100074.53;;;11.03;100.00
48790;BME280;41718;51.980;5.734;2023-03-23T07:18:29;100072.78;;;11.04;100.00
48790;BME280;41718;51.980;5.734;2023-03-23T07:23:32;100084.88;;;11.08;100.00
48790;BME280;41718;51.980;5.734;2023-03-23T07:28:33;100089.19;;;11.10;100.00
48790;BME280;41718;51.980;5.734;2023-03-23T07:33:34;100099.53;;;11.06;100.00
48790;BME280;41718;51.980;5.734;2023-03-23T07:38:40;100107.31;;;10.95;100.00
48790;BME280;41718;51.980;5.734;2023-03-23T07:43:41;100102.97;;;10.86;100.00
48790;BME280;41718;51.980;5.734;2023-03-23T07:48:43;100113.31;;;10.80;100.00
48790;BME280;41718;51.980;5.734;2023-03-23T07:53:44;100108.97;;;10.72;100.00
48790;BME280;41718;51.980;5.734;2023-03-23T07:58:46;100127.91;;;10.52;100.00
48790;BME280;41718;51.980;5.734;2023-03-23T08:03:46;100137.38;;;10.46;100.00
48790;BME280;41718;51.980;5.734;2023-03-23T08:08:48;100159.75;;;10.42;100.00
48790;BME280;41718;51.980;5.734;2023-03-23T08:13:49;100159.75;;;10.41;100.00
48790;BME280;41718;51.980;5.734;2023-03-23T08:18:50;100159.72;;;10.34;100.00
48790;BME280;41718;51.980;5.734;2023-03-23T08:23:52;100162.31;;;10.36;100.00
48790;BME280;41718;51.980;5.734;2023-03-23T08:28:52;100171.81;;;10.39;100.00
48790;BME280;41718;51.980;5.734;2023-03-23T08:34:02;100178.69;;;10.37;100.00
48790;BME280;41718;51.980;5.734;2023-03-23T08:39:04;100159.78;;;10.48;100.00
48790;BME280;41718;51.980;5.734;2023-03-23T08:44:07;100163.25;;;10.58;100.00
48790;BME280;41718;51.980;5.734;2023-03-23T08:49:08;100165.00;;;10.56;100.00
48790;BME280;41718;51.980;5.734;2023-03-23T08:54:10;100160.72;;;10.67;100.00
48790;BME280;41718;51.980;5.734;2023-03-23T08:59:13;100162.47;;;10.73;100.00
48790;BME280;41718;51.980;5.734;2023-03-23T09:04:14;100170.22;;;10.74;100.00
48790;BME280;41718;51.980;5.734;2023-03-23T09:09:14;100187.47;;;10.72;100.00
48790;BME280;41718;51.980;5.734;2023-03-23T09:14:21;100189.16;;;10.70;100.00
48790;BME280;41718;51.980;5.734;2023-03-23T09:19:32;100180.56;;;10.76;100.00
48790;BME280;41718;51.980;5.734;2023-03-23T09:24:33;100182.31;;;10.87;100.00
48790;BME280;41718;51.980;5.734;2023-03-23T09:29:33;100176.31;;;10.96;100.00
48790;BME280;41718;51.980;5.734;2023-03-23T09:34:34;100185.81;;;11.11;100.00
48790;BME280;41718;51.980;5.734;2023-03-23T09:39:36;100191.88;;;11.13;100.00
48790;BME280;41718;51.980;5.734;2023-03-23T09:50:09;100187.56;;;11.27;100.00
48790;BME280;41718;51.980;5.734;2023-03-23T09:55:17;100196.25;;;11.35;100.00
48790;BME280;41718;51.980;5.734;2023-03-23T10:00:32;100196.25;;;11.64;100.00
48790;BME280;41718;51.980;5.734;2023-03-23T10:05:37;100188.47;;;11.45;100.00
48790;BME280;41718;51.980;5.734;2023-03-23T10:10:51;100196.22;;;11.51;100.00
48790;BME280;41718;51.980;5.734;2023-03-23T10:15:54;100193.69;;;11.87;100.00
48790;BME280;41718;51.980;5.734;2023-03-23T10:20:58;100198.78;;;12.18;100.00
48790;BME280;41718;51.980;5.734;2023-03-23T10:26:23;100203.94;;;12.38;100.00
48790;BME280;41718;51.980;5.734;2023-03-23T10:31:35;100191.03;;;12.13;100.00
48790;BME280;41718;51.980;5.734;2023-03-23T10:41:53;100211.75;;;12.23;100.00
48790;BME280;41718;51.980;5.734;2023-03-23T10:47:01;100210.84;;;12.43;100.00
48790;BME280;41718;51.980;5.734;2023-03-23T10:57:27;100195.91;;;12.99;100.00
48790;BME280;41718;51.980;5.734;2023-03-23T11:02:35;100188.00;;;13.22;100.00
48790;BME280;41718;51.980;5.734;2023-03-23T11:07:36;100182.81;;;13.10;100.00
48790;BME280;41718;51.980;5.734;2023-03-23T11:12:43;100176.09;;;13.98;100.00
48790;BME280;41718;51.980;5.734;2023-03-23T11:17:58;100185.78;;;13.81;100.00
48790;BME280;41718;51.980;5.734;2023-03-23T11:22:58;100182.75;;;14.25;100.00
48790;BME280;41718;51.980;5.734;2023-03-23T11:28:00;100187.81;;;13.46;100.00
48790;BME280;41718;51.980;5.734;2023-03-23T11:33:02;100182.75;;;13.20;100.00
48790;BME280;41718;51.980;5.734;2023-03-23T11:38:03;100181.84;;;13.32;100.00
48790;BME280;41718;51.980;5.734;2023-03-23T11:43:13;100188.84;;;13.15;100.00
48790;BME280;41718;51.980;5.734;2023-03-23T11:48:35;100191.38;;;13.32;100.00
48790;BME280;41718;51.980;5.734;2023-03-23T11:53:50;100192.16;;;13.46;100.00
48790;BME280;41718;51.980;5.734;2023-03-23T11:58:56;100189.56;;;13.44;100.00
48790;BME280;41718;51.980;5.734;2023-03-23T12:04:26;100185.81;;;13.77;100.00
48790;BME280;41718;51.980;5.734;2023-03-23T12:09:54;100175.19;;;14.03;100.00
48790;BME280;41718;51.980;5.734;2023-03-23T12:15:08;100170.28;;;13.73;100.00
48790;BME280;41718;51.980;5.734;2023-03-23T12:20:15;100163.25;;;13.84;100.00
48790;BME280;41718;51.980;5.734;2023-03-23T12:36:02;100199.47;;;12.78;100.00
48790;BME280;41718;51.980;5.734;2023-03-23T12:41:17;100216.97;;;11.75;100.00
48790;BME280;41718;51.980;5.734;2023-03-23T12:52:01;100227.22;;;10.90;100.00
48790;BME280;41718;51.980;5.734;2023-03-23T12:57:11;100234.19;;;11.27;100.00
48790;BME280;41718;51.980;5.734;2023-03-23T13:02:29;100246.31;;;11.36;100.00
48790;BME280;41718;51.980;5.734;2023-03-23T13:07:52;100220.38;;;11.28;100.00
48790;BME280;41718;51.980;5.734;2023-03-23T13:12:54;100231.56;;;11.17;100.00
48790;BME280;41718;51.980;5.734;2023-03-23T13:18:02;100254.06;;;11.24;100.00
48790;BME280;41718;51.980;5.734;2023-03-23T13:28:21;100241.16;;;11.80;100.00
48790;BME280;41718;51.980;5.734;2023-03-23T13:33:23;100227.34;;;12.09;100.00
48790;BME280;41718;51.980;5.734;2023-03-23T13:38:27;100223.88;;;12.11;100.00
48790;BME280;41718;51.980;5.734;2023-03-23T13:43:32;100236.88;;;12.08;100.00
48790;BME280;41718;51.980;5.734;2023-03-23T13:53:46;100234.25;;;12.14;100.00
48790;BME280;41718;51.980;5.734;2023-03-23T13:59:03;100223.03;;;12.00;100.00
48790;BME280;41718;51.980;5.734;2023-03-23T14:04:15;100229.97;;;12.03;100.00
48790;BME280;41718;51.980;5.734;2023-03-23T14:09:31;100227.34;;;12.04;100.00
48790;BME280;41718;51.980;5.734;2023-03-23T14:14:39;100216.16;;;11.91;100.00
48790;BME280;41718;51.980;5.734;2023-03-23T14:19:44;100235.09;;;11.78;100.00
48790;BME280;41718;51.980;5.734;2023-03-23T14:24:46;100244.63;;;11.94;100.00
48790;BME280;41718;51.980;5.734;2023-03-23T14:30:09;100233.38;;;12.12;100.00
48790;BME280;41718;51.980;5.734;2023-03-23T14:35:23;100230.75;;;12.35;100.00
48790;BME280;41718;51.980;5.734;2023-03-23T14:40:28;100215.97;;;12.57;100.00
48790;BME280;41718;51.980;5.734;2023-03-23T14:45:31;100211.59;;;12.78;100.00
48790;BME280;41718;51.980;5.734;2023-03-23T14:50:42;100176.06;;;12.86;100.00
48790;BME280;41718;51.980;5.734;2023-03-23T14:55:53;100142.31;;;12.84;100.00
48790;BME280;41718;51.980;5.734;2023-03-23T15:01:04;100135.28;;;13.05;100.00
48790;BME280;41718;51.980;5.734;2023-03-23T15:06:13;100115.28;;;13.14;100.00
48790;BME280;41718;51.980;5.734;2023-03-23T15:26:42;100133.41;;;13.28;100.00
48790;BME280;41718;51.980;5.734;2023-03-23T15:31:53;100123.56;;;13.61;100.00
48790;BME280;41718;51.980;5.734;2023-03-23T15:36:58;100100.41;;;13.38;100.00
48790;BME280;41718;51.980;5.734;2023-03-23T15:42:04;100085.88;;;13.11;100.00
48790;BME280;41718;51.980;5.734;2023-03-23T15:47:17;100091.88;;;13.19;100.00
48790;BME280;41718;51.980;5.734;2023-03-23T15:52:21;100083.13;;;13.34;100.00
48790;BME280;41718;51.980;5.734;2023-03-23T15:57:22;100094.44;;;13.26;100.00
48790;BME280;41718;51.980;5.734;2023-03-23T16:02:23;100110.03;;;13.20;100.00
48790;BME280;41718;51.980;5.734;2023-03-23T16:07:25;100084.13;;;13.10;100.00
48790;BME280;41718;51.980;5.734;2023-03-23T16:12:27;100099.63;;;13.30;100.00
48790;BME280;41718;51.980;5.734;2023-03-23T16:17:28;100096.06;;;13.40;100.00
48790;BME280;41718;51.980;5.734;2023-03-23T16:22:30;100086.47;;;13.46;100.00
48790;BME280;41718;51.980;5.734;2023-03-23T16:27:34;100097.75;;;13.45;100.00
48790;BME280;41718;51.980;5.734;2023-03-23T16:32:36;100093.44;;;13.43;100.00
48790;BME280;41718;51.980;5.734;2023-03-23T16:37:42;100092.66;;;13.32;100.00
48790;BME280;41718;51.980;5.734;2023-03-23T16:42:44;100096.13;;;13.34;100.00
48790;BME280;41718;51.980;5.734;2023-03-23T16:47:46;100112.78;;;13.02;100.00
48790;BME280;41718;51.980;5.734;2023-03-23T16:52:48;100114.47;;;13.08;100.00
48790;BME280;41718;51.980;5.734;2023-03-23T16:57:49;100122.34;;;12.95;100.00
48790;BME280;41718;51.980;5.734;2023-03-23T17:02:52;100107.63;;;12.96;100.00
48790;BME280;41718;51.980;5.734;2023-03-23T17:07:57;100096.38;;;12.92;100.00
48790;BME280;41718;51.980;5.734;2023-03-23T17:12:59;100108.50;;;12.92;100.00
48790;BME280;41718;51.980;5.734;2023-03-23T17:18:01;100115.53;;;12.82;100.00
48790;BME280;41718;51.980;5.734;2023-03-23T17:23:03;100107.72;;;12.81;100.00
48790;BME280;41718;51.980;5.734;2023-03-23T17:28:05;100102.69;;;12.55;100.00
48790;BME280;41718;51.980;5.734;2023-03-23T17:33:07;100106.16;;;12.54;100.00
48790;BME280;41718;51.980;5.734;2023-03-23T17:38:09;100115.59;;;12.67;100.00
48790;BME280;41718;51.980;5.734;2023-03-23T17:43:11;100104.34;;;12.65;100.00
48790;BME280;41718;51.980;5.734;2023-03-23T17:48:12;100113.91;;;12.57;100.00
48790;BME280;41718;51.980;5.734;2023-03-23T17:53:14;100094.91;;;12.53;100.00
48790;BME280;41718;51.980;5.734;2023-03-23T17:58:16;100106.19;;;12.41;100.00
48790;BME280;41718;51.980;5.734;2023-03-23T18:03:25;100101.06;;;12.31;100.00
48790;BME280;41718;51.980;5.734;2023-03-23T18:08:27;100108.06;;;12.16;100.00
48790;BME280;41718;51.980;5.734;2023-03-23T18:13:31;100112.38;;;12.13;100.00
48790;BME280;41718;51.980;5.734;2023-03-23T18:18:33;100090.81;;;12.02;100.00
48790;BME280;41718;51.980;5.734;2023-03-23T18:23:36;100089.09;;;11.94;100.00
48790;BME280;41718;51.980;5.734;2023-03-23T18:28:53;100099.47;;;11.98;100.00
48790;BME280;41718;51.980;5.734;2023-03-23T18:34:00;100095.16;;;11.95;100.00
48790;BME280;41718;51.980;5.734;2023-03-23T18:39:02;100092.53;;;12.01;100.00
48790;BME280;41718;51.980;5.734;2023-03-23T18:44:04;100096.03;;;11.97;100.00
48790;BME280;41718;51.980;5.734;2023-03-23T18:49:06;100083.06;;;11.89;100.00
48790;BME280;41718;51.980;5.734;2023-03-23T18:54:07;100070.13;;;11.89;100.00
48790;BME280;41718;51.980;5.734;2023-03-23T18:59:09;100078.75;;;11.88;100.00
48790;BME280;41718;51.980;5.734;2023-03-23T19:04:16;100058.03;;;11.84;100.00
48790;BME280;41718;51.980;5.734;2023-03-23T19:09:22;100069.25;;;11.84;100.00
48790;BME280;41718;51.980;5.734;2023-03-23T19:14:24;100054.56;;;11.80;100.00
48790;BME280;41718;51.980;5.734;2023-03-23T19:19:26;100045.06;;;11.81;100.00
48790;BME280;41718;51.980;5.734;2023-03-23T19:24:27;100040.75;;;11.78;100.00
48790;BME280;41718;51.980;5.734;2023-03-23T19:29:30;100039.03;;;11.77;100.00
48790;BME280;41718;51.980;5.734;2023-03-23T19:34:32;100028.66;;;11.80;100.00
48790;BME280;41718;51.980;5.734;2023-03-23T19:39:34;100019.13;;;11.79;100.00
48790;BME280;41718;51.980;5.734;2023-03-23T19:44:37;100014.88;;;11.81;100.00
48790;BME280;41718;51.980;5.734;2023-03-23T19:49:39;100008.78;;;11.81;100.00
48790;BME280;41718;51.980;5.734;2023-03-23T19:54:49;100012.22;;;11.80;100.00
48790;BME280;41718;51.980;5.734;2023-03-23T19:59:52;99997.56;;;11.85;100.00
48790;BME280;41718;51.980;5.734;2023-03-23T20:04:55;99991.47;;;11.90;100.00
48790;BME280;41718;51.980;5.734;2023-03-23T20:09:59;99987.19;;;11.86;100.00
48790;BME280;41718;51.980;5.734;2023-03-23T20:15:01;99985.44;;;11.85;100.00
48790;BME280;41718;51.980;5.734;2023-03-23T20:20:04;99988.91;;;11.84;100.00
48790;BME280;41718;51.980;5.734;2023-03-23T20:25:11;99994.94;;;11.91;100.00
48790;BME280;41718;51.980;5.734;2023-03-23T20:30:14;99986.34;;;11.83;100.00
48790;BME280;41718;51.980;5.734;2023-03-23T20:35:20;99983.78;;;11.69;100.00
48790;BME280;41718;51.980;5.734;2023-03-23T20:40:30;99983.00;;;11.52;100.00
48790;BME280;41718;51.980;5.734;2023-03-23T20:45:40;99975.22;;;11.46;100.00
48790;BME280;41718;51.980;5.734;2023-03-23T20:50:45;99970.09;;;11.30;100.00
48790;BME280;41718;51.980;5.734;2023-03-23T20:55:51;99966.66;;;11.24;100.00
48790;BME280;41718;51.980;5.734;2023-03-23T21:00:56;99955.44;;;11.15;100.00
48790;BME280;41718;51.980;5.734;2023-03-23T21:06:04;99957.16;;;11.17;100.00
48790;BME280;41718;51.980;5.734;2023-03-23T21:11:19;99958.00;;;11.17;100.00
48790;BME280;41718;51.980;5.734;2023-03-23T21:16:22;99943.38;;;11.08;100.00
48790;BME280;41718;51.980;5.734;2023-03-23T21:21:27;99951.16;;;11.07;100.00
48790;BME280;41718;51.980;5.734;2023-03-23T21:26:30;99933.03;;;11.04;100.00
48790;BME280;41718;51.980;5.734;2023-03-23T21:31:33;99928.75;;;11.01;100.00
48790;BME280;41718;51.980;5.734;2023-03-23T21:36:35;99908.88;;;11.00;100.00
48790;BME280;41718;51.980;5.734;2023-03-23T21:41:43;99889.88;;;11.04;100.00
48790;BME280;41718;51.980;5.734;2023-03-23T21:46:47;99893.34;;;11.06;100.00
48790;BME280;41718;51.980;5.734;2023-03-23T21:51:52;99880.41;;;11.05;100.00
48790;BME280;41718;51.980;5.734;2023-03-23T21:56:59;99872.63;;;11.09;100.00
48790;BME280;41718;51.980;5.734;2023-03-23T22:02:04;99873.47;;;11.16;100.00
48790;BME280;41718;51.980;5.734;2023-03-23T22:07:10;99873.47;;;11.19;100.00
48790;BME280;41718;51.980;5.734;2023-03-23T22:12:14;99863.94;;;11.23;100.00
48790;BME280;41718;51.980;5.734;2023-03-23T22:17:18;99856.19;;;11.21;100.00
48790;BME280;41718;51.980;5.734;2023-03-23T22:22:19;99851.00;;;11.17;100.00
48790;BME280;41718;51.980;5.734;2023-03-23T22:27:23;99845.00;;;11.14;100.00
48790;BME280;41718;51.980;5.734;2023-03-23T22:32:28;99840.69;;;11.15;100.00
48790;BME280;41718;51.980;5.734;2023-03-23T22:37:30;99828.59;;;11.11;100.00
48790;BME280;41718;51.980;5.734;2023-03-23T22:42:32;99820.88;;;11.03;100.00
48790;BME280;41718;51.980;5.734;2023-03-23T22:47:34;99819.19;;;10.98;100.00
48790;BME280;41718;51.980;5.734;2023-03-23T22:52:48;99805.41;;;10.88;100.00
48790;BME280;41718;51.980;5.734;2023-03-23T22:57:52;99805.41;;;10.88;100.00
48790;BME280;41718;51.980;5.734;2023-03-23T23:02:54;99790.75;;;10.82;100.00
48790;BME280;41718;51.980;5.734;2023-03-23T23:07:55;99792.47;;;10.82;100.00
48790;BME280;41718;51.980;5.734;2023-03-23T23:12:57;99778.72;;;10.80;100.00
48790;BME280;41718;51.980;5.734;2023-03-23T23:17:58;99787.34;;;10.71;100.00
48790;BME280;41718;51.980;5.734;2023-03-23T23:23:01;99780.44;;;10.72;100.00
48790;BME280;41718;51.980;5.734;2023-03-23T23:28:04;99767.50;;;10.76;100.00
48790;BME280;41718;51.980;5.734;2023-03-23T23:33:06;99761.44;;;10.77;100.00
48790;BME280;41718;51.980;5.734;2023-03-23T23:38:10;99754.56;;;10.76;100.00
48790;BME280;41718;51.980;5.734;2023-03-23T23:43:15;99750.25;;;10.77;100.00
48790;BME280;41718;51.980;5.734;2023-03-23T23:48:19;99755.44;;;10.71;100.00
48790;BME280;41718;51.980;5.734;2023-03-23T23:53:21;99746.81;;;10.79;100.00
48790;BME280;41718;51.980;5.734;2023-03-23T23:58:22;99736.47;;;10.75;100.00
